Terminal Aerodrome Forecast
Issued by NWS

Home | Current Version | Previous Version | Text Only | Print | Product List | Glossary On
Versions: 1 2 3 4 5 6 7 8 9 10 11 12 13 14 15 16 17 18 19 20 21 22
000
FTUS43 KLSX 260500
TAFUIN
TAF
KUIN 260520Z 2606/2706 18010KT P6SM BKN250
     FM261000 19008KT 6SM -SHRA SCT020 BKN050
     FM261500 20012G22KT P6SM SCT035
     FM270000 23012G22KT P6SM VCTS BKN040CB=

USA.gov is the U.S. government's official web portal to all federal, state and local government web resources and services.